Time;durP1;ratioP1;P1;durP2;ratioP2;P2;SDS_P1;SDS_P2;PMS_P1;PMS_P2;Temp;Humidity;BMP_temperature;BMP_pressure;BME280_temperature;BME280_humidity;BME280_pressure;Samples;Min_cycle;Max_cycle;Signal;HPM_P1;HPM_P2
2024/02/01 00:02:24;;;;;;;6.03;3.50;;;7.90;99.90;;;;;;5029253;28;20034;-48
2024/02/01 00:04:50;;;;;;;6.40;3.60;;;7.90;99.90;;;;;;5029165;28;20061;-45
2024/02/01 00:07:15;;;;;;;5.50;3.70;;;7.90;99.90;;;;;;5028868;28;20104;-46
2024/02/01 00:09:41;;;;;;;4.60;3.25;;;7.90;99.90;;;;;;5028520;28;20033;-47
2024/02/01 00:12:07;;;;;;;5.13;3.03;;;7.90;99.90;;;;;;5029031;28;20098;-49
2024/02/01 00:14:32;;;;;;;4.82;3.35;;;7.90;99.90;;;;;;5028344;28;20030;-44
2024/02/01 00:16:58;;;;;;;4.78;2.75;;;8.00;99.90;;;;;;5010890;28;20030;-46
2024/02/01 00:19:24;;;;;;;2.80;2.60;;;8.00;99.90;;;;;;5024180;28;20026;-43
2024/02/01 00:21:49;;;;;;;3.22;2.92;;;8.00;99.90;;;;;;5028274;28;20037;-39
2024/02/01 00:24:15;;;;;;;4.65;2.85;;;8.10;99.90;;;;;;5026754;28;20414;-45
2024/02/01 00:26:41;;;;;;;5.00;2.20;;;8.10;99.90;;;;;;5018770;28;20076;-45
2024/02/01 00:29:06;;;;;;;2.65;2.45;;;8.10;99.90;;;;;;4994084;28;20054;-45
2024/02/01 00:31:32;;;;;;;4.13;2.42;;;8.20;99.90;;;;;;5011748;28;20018;-50
2024/02/01 00:33:59;;;;;;;3.80;2.65;;;8.20;99.90;;;;;;5011427;28;20104;-48
2024/02/01 00:36:24;;;;;;;5.78;2.63;;;8.30;99.90;;;;;;5010704;28;20104;-46
2024/02/01 00:38:50;;;;;;;4.93;2.45;;;8.30;99.90;;;;;;4994544;28;20505;-44
2024/02/01 00:41:15;;;;;;;2.95;2.65;;;8.30;99.90;;;;;;5011704;28;20469;-44
2024/02/01 00:43:42;;;;;;;4.03;2.45;;;8.30;99.90;;;;;;5011525;28;20092;-45
2024/02/01 00:46:09;;;;;;;2.55;2.35;;;8.30;99.90;;;;;;5011505;28;20045;-46
2024/02/01 00:48:35;;;;;;;3.38;2.70;;;8.30;99.90;;;;;;5011351;28;20037;-47
2024/02/01 00:51:00;;;;;;;6.10;2.45;;;8.30;99.90;;;;;;5012020;28;20471;-45
2024/02/01 00:53:27;;;;;;;4.28;2.95;;;8.30;99.90;;;;;;5011159;28;20025;-47
2024/02/01 00:55:53;;;;;;;3.55;2.78;;;8.20;99.90;;;;;;5011557;28;20026;-46
2024/02/01 00:58:18;;;;;;;5.15;2.60;;;8.30;99.90;;;;;;5011369;28;20025;-46
2024/02/01 01:00:44;;;;;;;3.08;2.63;;;8.30;99.90;;;;;;5011527;28;20026;-45
2024/02/01 01:03:09;;;;;;;4.85;3.00;;;8.30;99.90;;;;;;5011113;28;20036;-45
2024/02/01 01:05:35;;;;;;;4.88;2.47;;;8.20;99.90;;;;;;5011243;28;20030;-45
2024/02/01 01:08:00;;;;;;;2.38;2.17;;;8.30;99.90;;;;;;5011251;28;20022;-44
2024/02/01 01:10:26;;;;;;;4.65;2.33;;;8.30;99.90;;;;;;5011322;28;20022;-50
2024/02/01 01:12:51;;;;;;;3.05;2.53;;;8.40;99.90;;;;;;5011046;28;20030;-47
2024/02/01 01:15:17;;;;;;;2.90;2.30;;;8.40;99.90;;;;;;5012016;28;20033;-44
2024/02/01 01:17:42;;;;;;;3.25;2.28;;;8.30;99.90;;;;;;5011278;28;20034;-46
2024/02/01 01:20:09;;;;;;;4.07;2.63;;;8.30;99.90;;;;;;5011317;28;20029;-47
2024/02/01 01:22:34;;;;;;;4.22;3.13;;;8.30;99.90;;;;;;5010891;28;20033;-49
2024/02/01 01:25:00;;;;;;;2.92;2.65;;;8.30;99.90;;;;;;5011190;28;20026;-46
2024/02/01 01:27:25;;;;;;;4.55;2.70;;;8.30;99.90;;;;;;5011223;28;20022;-44
2024/02/01 01:29:51;;;;;;;4.07;2.50;;;8.30;99.90;;;;;;5011115;28;20498;-45
2024/02/01 01:32:17;;;;;;;2.88;2.25;;;8.20;99.90;;;;;;5010800;28;20028;-46
2024/02/01 01:34:42;;;;;;;3.00;2.78;;;8.10;99.90;;;;;;5010815;28;20022;-48
2024/02/01 01:37:08;;;;;;;3.83;2.40;;;8.10;99.90;;;;;;5011134;28;20022;-46
2024/02/01 01:39:33;;;;;;;4.43;2.20;;;8.10;99.90;;;;;;5011145;28;20109;-50
2024/02/01 01:41:59;;;;;;;5.82;2.25;;;8.20;99.90;;;;;;5011166;28;20411;-44
2024/02/01 01:44:24;;;;;;;5.35;2.70;;;8.10;99.90;;;;;;5010827;28;20068;-47
2024/02/01 01:46:50;;;;;;;5.80;2.50;;;8.10;99.90;;;;;;5011637;28;20541;-40
2024/02/01 01:49:19;;;;;;;2.60;2.28;;;8.20;99.90;;;;;;5014436;28;20072;-45
2024/02/01 01:51:47;;;;;;;4.78;2.70;;;8.20;99.90;;;;;;5014526;28;20026;-46
2024/02/01 01:54:14;;;;;;;3.03;2.50;;;8.30;99.90;;;;;;4996750;28;20089;-44
2024/02/01 01:56:42;;;;;;;7.03;2.75;;;8.30;99.90;;;;;;5014531;28;20018;-43
2024/02/01 01:59:10;;;;;;;3.28;2.65;;;8.30;99.90;;;;;;5014363;28;20029;-45
2024/02/01 02:01:38;;;;;;;3.00;2.67;;;8.30;99.90;;;;;;5014478;28;20022;-44
2024/02/01 02:04:06;;;;;;;2.58;2.35;;;8.30;99.90;;;;;;5014110;28;20034;-47
2024/02/01 02:06:32;;;;;;;5.90;3.00;;;8.30;99.90;;;;;;5014281;28;20026;-43
2024/02/01 02:08:58;;;;;;;3.67;2.75;;;8.30;99.90;;;;;;5014196;28;20033;-45
2024/02/01 02:11:25;;;;;;;2.97;2.65;;;8.30;99.90;;;;;;5014290;28;20072;-49
2024/02/01 02:13:51;;;;;;;4.20;2.58;;;8.30;99.90;;;;;;5013881;28;20022;-47
2024/02/01 02:16:17;;;;;;;2.65;2.45;;;8.40;99.90;;;;;;5014258;28;20041;-45
2024/02/01 02:18:43;;;;;;;4.43;2.83;;;8.30;99.90;;;;;;5013896;28;20491;-43
2024/02/01 02:21:11;;;;;;;6.22;3.17;;;8.30;99.90;;;;;;5014398;28;20034;-43
2024/02/01 02:23:38;;;;;;;3.38;2.95;;;8.30;99.90;;;;;;5013895;28;20036;-45
2024/02/01 02:26:05;;;;;;;3.85;3.25;;;8.40;99.90;;;;;;5014126;28;20376;-43
2024/02/01 02:28:35;;;;;;;3.38;2.75;;;8.40;99.90;;;;;;5013912;28;20076;-44
2024/02/01 02:31:01;;;;;;;4.28;2.70;;;8.40;99.90;;;;;;5013899;28;20018;-43
2024/02/01 02:33:27;;;;;;;4.47;2.95;;;8.50;99.90;;;;;;5013909;28;20033;-44
2024/02/01 02:35:53;;;;;;;3.50;3.03;;;8.50;99.90;;;;;;4996466;28;20026;-42
2024/02/01 02:38:19;;;;;;;5.85;3.28;;;8.60;99.90;;;;;;5013752;28;20502;-46
2024/02/01 02:40:44;;;;;;;4.55;3.55;;;8.60;99.90;;;;;;5013689;28;20038;-45
2024/02/01 02:43:10;;;;;;;4.03;3.55;;;8.60;99.90;;;;;;5013394;28;20036;-47
2024/02/01 02:45:35;;;;;;;4.43;3.45;;;8.60;99.90;;;;;;5013415;28;20434;-43
2024/02/01 02:48:05;;;;;;;4.30;3.30;;;8.60;99.90;;;;;;5013271;28;20026;-47
2024/02/01 02:50:30;;;;;;;6.65;3.55;;;8.60;99.90;;;;;;5013665;28;20026;-44
2024/02/01 02:52:56;;;;;;;3.38;3.08;;;8.70;99.90;;;;;;5013260;28;20395;-43
2024/02/01 02:55:21;;;;;;;6.78;3.70;;;8.70;99.90;;;;;;5013474;28;20048;-47
2024/02/01 02:57:47;;;;;;;5.18;4.13;;;8.60;99.90;;;;;;5013084;28;20084;-48
2024/02/01 03:00:18;;;;;;;8.80;4.68;;;8.60;99.90;;;;;;5012516;28;20033;-46
2024/02/01 03:02:50;;;;;;;7.75;4.47;;;8.60;99.90;;;;;;5013029;28;20029;-44
2024/02/01 03:05:16;;;;;;;5.95;3.92;;;8.60;99.90;;;;;;5013413;28;20092;-48
2024/02/01 03:07:43;;;;;;;7.07;4.25;;;8.60;99.90;;;;;;5013200;28;20033;-44
2024/02/01 03:10:08;;;;;;;6.82;4.55;;;8.60;99.90;;;;;;5013118;28;20032;-48
2024/02/01 03:12:34;;;;;;;6.68;4.15;;;8.50;99.90;;;;;;5012778;28;20425;-49
2024/02/01 03:14:59;;;;;;;8.45;4.68;;;8.50;99.90;;;;;;5013086;28;20049;-48
2024/02/01 03:17:25;;;;;;;7.43;4.32;;;8.60;99.90;;;;;;5013024;28;20249;-43
2024/02/01 03:19:51;;;;;;;7.88;4.57;;;8.60;99.90;;;;;;5012874;28;20101;-48
2024/02/01 03:22:19;;;;;;;6.10;4.75;;;8.60;99.90;;;;;;5012872;28;20462;-47
2024/02/01 03:24:46;;;;;;;6.07;4.97;;;;;;;;;;5012749;28;20079;-45
2024/02/01 03:27:12;;;;;;;7.05;4.50;;;8.60;99.90;;;;;;5012711;28;20029;-45
2024/02/01 03:29:37;;;;;;;8.68;5.30;;;8.60;99.90;;;;;;5012733;28;20503;-47
2024/02/01 03:32:06;;;;;;;6.35;5.20;;;8.60;99.90;;;;;;5012707;28;20026;-45
2024/02/01 03:34:32;;;;;;;10.13;4.93;;;8.50;99.90;;;;;;5012544;28;20025;-47
2024/02/01 03:36:58;;;;;;;8.48;6.00;;;8.50;99.90;;;;;;5012646;28;20058;-45
2024/02/01 03:39:24;;;;;;;6.05;5.15;;;8.50;99.90;;;;;;5012549;28;20398;-45
2024/02/01 03:41:54;;;;;;;8.10;5.07;;;8.50;99.90;;;;;;5012475;28;20030;-44
2024/02/01 03:44:19;;;;;;;5.85;4.75;;;8.50;99.90;;;;;;5012247;28;20029;-47
2024/02/01 03:46:45;;;;;;;6.97;4.53;;;8.50;99.90;;;;;;5012346;28;20021;-51
2024/02/01 03:49:10;;;;;;;9.25;6.03;;;8.50;99.90;;;;;;5012259;28;20227;-45
2024/02/01 03:51:37;;;;;;;9.93;5.25;;;8.50;99.90;;;;;;5012356;28;20026;-47
2024/02/01 03:54:05;;;;;;;7.50;4.45;;;8.50;99.90;;;;;;5012072;28;20398;-43
2024/02/01 03:56:32;;;;;;;6.43;5.10;;;8.60;99.90;;;;;;5012311;28;20356;-43
2024/02/01 03:59:01;;;;;;;7.55;5.00;;;8.60;99.90;;;;;;5012191;28;20091;-44
2024/02/01 04:01:27;;;;;;;8.93;5.53;;;8.50;99.90;;;;;;4994555;28;20445;-44
2024/02/01 04:03:55;;;;;;;8.13;5.20;;;8.50;99.90;;;;;;5011864;28;20025;-43
2024/02/01 04:06:22;;;;;;;7.53;5.05;;;8.50;99.90;;;;;;5011986;28;20087;-43
2024/02/01 04:08:47;;;;;;;8.93;5.65;;;8.50;99.90;;;;;;5011992;28;20084;-44
2024/02/01 04:11:13;;;;;;;7.40;5.25;;;8.50;99.90;;;;;;5011901;28;20108;-44
2024/02/01 04:13:39;;;;;;;10.02;5.57;;;8.40;99.90;;;;;;5011779;28;20026;-43
2024/02/01 04:16:05;;;;;;;10.10;5.45;;;8.50;99.90;;;;;;5012055;28;20447;-46
2024/02/01 04:18:30;;;;;;;6.47;5.35;;;8.50;99.90;;;;;;5012490;28;20148;-46
2024/02/01 04:20:55;;;;;;;6.53;5.72;;;8.50;99.90;;;;;;5011980;28;20034;-43
2024/02/01 04:23:21;;;;;;;8.77;5.32;;;8.50;99.90;;;;;;5011711;28;20469;-45
2024/02/01 04:25:46;;;;;;;8.02;6.38;;;8.40;99.90;;;;;;5012165;28;20030;-44
2024/02/01 04:28:14;;;;;;;9.73;6.53;;;8.40;99.90;;;;;;5011809;28;20022;-43
2024/02/01 04:30:41;;;;;;;8.63;6.40;;;8.40;99.90;;;;;;5012115;28;20028;-44
2024/02/01 04:33:07;;;;;;;7.18;5.70;;;8.30;99.90;;;;;;5017713;28;20199;-41
2024/02/01 04:35:33;;;;;;;11.80;6.22;;;8.30;99.90;;;;;;5012337;28;20033;-43
2024/02/01 04:37:58;;;;;;;8.02;6.50;;;8.20;99.90;;;;;;5011494;28;20415;-43
2024/02/01 04:40:24;;;;;;;9.48;6.75;;;8.30;99.90;;;;;;5012069;28;20037;-43
2024/02/01 04:42:52;;;;;;;6.70;5.38;;;8.40;99.90;;;;;;5011335;28;20106;-44
2024/02/01 04:45:18;;;;;;;7.90;6.45;;;8.40;99.90;;;;;;4993875;28;20095;-43
2024/02/01 04:47:44;;;;;;;8.10;6.18;;;8.40;99.90;;;;;;5011616;28;20471;-45
2024/02/01 04:50:10;;;;;;;14.80;7.35;;;8.40;99.90;;;;;;5011336;28;20076;-44
2024/02/01 04:52:35;;;;;;;9.70;6.25;;;8.40;99.90;;;;;;5011268;28;20022;-43
2024/02/01 04:55:04;;;;;;;8.18;6.45;;;8.40;99.90;;;;;;5011626;28;20026;-43
2024/02/01 04:57:30;;;;;;;15.05;7.03;;;8.40;99.90;;;;;;5011479;28;20080;-45
2024/02/01 04:59:55;;;;;;;11.95;6.28;;;8.40;99.90;;;;;;5011953;28;20093;-44
2024/02/01 05:02:21;;;;;;;7.63;6.82;;;8.30;99.90;;;;;;5011389;28;20033;-45
2024/02/01 05:04:46;;;;;;;9.43;6.43;;;8.30;99.90;;;;;;5011409;28;20030;-45
2024/02/01 05:07:12;;;;;;;8.93;6.10;;;8.30;99.90;;;;;;5011295;28;20068;-45
2024/02/01 05:09:39;;;;;;;12.13;6.45;;;8.40;99.90;;;;;;5011456;28;20018;-43
2024/02/01 05:12:06;;;;;;;8.85;6.25;;;8.40;99.90;;;;;;5011503;28;20030;-46
2024/02/01 05:14:32;;;;;;;7.93;6.57;;;8.30;99.90;;;;;;5011189;28;20022;-43
2024/02/01 05:16:58;;;;;;;9.18;7.47;;;8.30;99.90;;;;;;5011545;28;20034;-43
2024/02/01 05:19:25;;;;;;;12.32;6.80;;;8.30;99.90;;;;;;5011312;28;20049;-44
2024/02/01 05:21:52;;;;;;;12.85;7.68;;;8.40;99.90;;;;;;5011920;28;20075;-44
2024/02/01 05:24:18;;;;;;;11.25;7.07;;;8.30;99.90;;;;;;5015061;28;20388;-42
2024/02/01 05:26:46;;;;;;;11.07;6.95;;;8.30;99.90;;;;;;5015361;28;20038;-43
2024/02/01 05:29:12;;;;;;;8.90;7.60;;;8.20;99.90;;;;;;5015045;28;20406;-49
2024/02/01 05:31:38;;;;;;;13.48;7.75;;;8.20;99.90;;;;;;5015092;28;20376;-46
2024/02/01 05:34:10;;;;;;;9.15;6.90;;;8.20;99.90;;;;;;5014799;28;20053;-43
2024/02/01 05:36:35;;;;;;;10.25;7.07;;;8.10;99.90;;;;;;5014947;28;20029;-46
2024/02/01 05:39:05;;;;;;;9.73;7.35;;;8.10;99.90;;;;;;5014848;28;20454;-47
2024/02/01 05:41:31;;;;;;;11.95;7.57;;;8.00;99.90;;;;;;5015647;28;20054;-47
2024/02/01 05:43:56;;;;;;;14.02;8.20;;;8.00;99.90;;;;;;5014982;28;20064;-44
2024/02/01 05:46:22;;;;;;;10.55;7.57;;;8.10;99.90;;;;;;5016201;28;20029;-45
2024/02/01 05:48:47;;;;;;;12.77;8.23;;;8.10;99.90;;;;;;5014538;28;20030;-46
2024/02/01 05:51:14;;;;;;;9.68;7.35;;;8.00;99.90;;;;;;5015151;28;20018;-43
2024/02/01 05:53:40;;;;;;;9.35;7.07;;;7.90;99.90;;;;;;5014917;28;20498;-47
2024/02/01 05:56:06;;;;;;;8.02;7.22;;;8.00;99.90;;;;;;5014772;28;20077;-44
2024/02/01 05:58:31;;;;;;;13.55;8.32;;;8.00;99.90;;;;;;5014421;28;20034;-44
2024/02/01 06:00:57;;;;;;;10.13;7.75;;;8.00;99.90;;;;;;5014543;28;20037;-44
2024/02/01 06:03:23;;;;;;;15.23;7.60;;;7.90;99.90;;;;;;5014181;28;20123;-43
2024/02/01 06:05:49;;;;;;;9.23;7.32;;;8.00;99.90;;;;;;5015155;28;20030;-42
2024/02/01 06:08:15;;;;;;;9.27;7.15;;;8.00;99.90;;;;;;5014875;28;20394;-44
2024/02/01 06:10:41;;;;;;;10.35;7.38;;;8.10;99.90;;;;;;5014780;28;20049;-43
2024/02/01 06:13:06;;;;;;;9.30;7.57;;;8.10;99.90;;;;;;5014074;28;20438;-47
2024/02/01 06:15:35;;;;;;;10.82;7.35;;;8.10;99.90;;;;;;4996625;28;20041;-44
2024/02/01 06:18:00;;;;;;;10.05;7.20;;;8.00;99.90;;;;;;5013991;28;20025;-45
2024/02/01 06:20:26;;;;;;;8.70;6.75;;;8.10;99.90;;;;;;5014303;28;20068;-43
2024/02/01 06:22:51;;;;;;;9.77;6.78;;;8.10;99.90;;;;;;5013896;28;20407;-43
2024/02/01 06:25:17;;;;;;;8.00;7.07;;;8.00;99.90;;;;;;5014345;28;20056;-40
2024/02/01 06:27:43;;;;;;;13.70;7.57;;;8.10;99.90;;;;;;5014128;28;20034;-46
2024/02/01 06:30:12;;;;;;;10.13;7.18;;;8.20;99.90;;;;;;5014091;28;20022;-45
2024/02/01 06:32:41;;;;;;;14.82;6.57;;;8.20;99.90;;;;;;5013448;28;20493;-42
2024/02/01 06:35:13;;;;;;;11.30;7.20;;;8.20;99.90;;;;;;5014003;28;20025;-44
2024/02/01 06:37:42;;;;;;;10.02;6.93;;;8.10;99.90;;;;;;5013815;28;20018;-45
2024/02/01 06:40:37;;;;;;;9.02;6.50;;;8.10;99.90;;;;;;5013663;28;20317;-44
2024/02/01 06:46:49;;;;;;;11.48;6.63;;;8.10;99.90;;;;;;5013501;28;20040;-41
2024/02/01 06:48:44;;;;;;;9.00;7.15;;;8.10;99.90;;;;;;5010269;28;20050;-45
2024/02/01 06:51:24;;;;;;;11.25;8.05;;;8.10;99.90;;;;;;5014244;28;20029;-47
2024/02/01 06:53:57;;;;;;;12.60;6.32;;;8.10;99.90;;;;;;5013440;28;20044;-45
2024/02/01 06:59:29;;;;;;;10.57;6.75;;;8.10;99.90;;;;;;5013692;28;20076;-44
2024/02/01 07:04:50;;;;;;;9.35;7.28;;;8.00;99.90;;;;;;5013150;28;20084;-44
2024/02/01 07:07:26;;;;;;;9.52;6.97;;;8.00;99.90;;;;;;5013138;28;20038;-46
2024/02/01 07:10:05;;;;;;;8.63;6.88;;;8.00;99.90;;;;;;5013117;28;20029;-49
2024/02/01 07:12:42;;;;;;;9.88;6.68;;;8.00;99.90;;;;;;5013054;28;20045;-45
2024/02/01 07:17:59;;;;;;;10.45;7.00;;;8.00;99.90;;;;;;5013074;28;20022;-45
2024/02/01 07:20:35;;;;;;;7.50;6.63;;;8.10;99.90;;;;;;5012897;28;20049;-43
2024/02/01 07:26:06;;;;;;;10.50;6.30;;;8.00;99.90;;;;;;5013216;28;20030;-41
2024/02/01 07:58:52;;;;;;;11.25;7.20;;;8.00;99.90;;;;;;5012293;28;20037;-47
2024/02/01 08:01:18;;;;;;;9.10;6.05;;;8.10;99.90;;;;;;5012322;28;20018;-44
2024/02/01 08:04:12;;;;;;;8.10;5.70;;;8.20;99.90;;;;;;5012075;28;20030;-45
2024/02/01 08:09:24;;;;;;;9.32;6.70;;;8.30;99.90;;;;;;5012407;28;20476;-44
2024/02/01 08:11:49;;;;;;;6.65;5.95;;;8.40;99.90;;;;;;5012269;28;20037;-45
2024/02/01 08:14:15;;;;;;;7.32;5.63;;;8.40;99.90;;;;;;5012083;28;20022;-46
2024/02/01 08:16:42;;;;;;;7.05;5.75;;;8.50;99.90;;;;;;5011997;28;20109;-45
2024/02/01 08:19:08;;;;;;;7.10;5.88;;;8.50;99.90;;;;;;5012001;28;20026;-44
2024/02/01 08:21:37;;;;;;;8.95;5.72;;;8.60;99.90;;;;;;5012779;28;20108;-44
2024/02/01 08:24:05;;;;;;;6.50;5.80;;;8.60;99.90;;;;;;5012004;28;20033;-45
2024/02/01 08:26:37;;;;;;;6.97;5.45;;;8.60;99.90;;;;;;5011872;28;20376;-44
2024/02/01 08:29:04;;;;;;;6.65;5.70;;;8.60;99.90;;;;;;5011840;28;20114;-42
2024/02/01 08:31:36;;;;;;;8.00;4.82;;;8.60;99.90;;;;;;5012057;28;20026;-48
2024/02/01 08:34:07;;;;;;;7.05;5.18;;;8.60;99.90;;;;;;5012180;28;20407;-45
2024/02/01 08:36:41;;;;;;;7.55;5.35;;;8.70;99.90;;;;;;5011774;28;20022;-48
2024/02/01 08:39:08;;;;;;;7.15;4.88;;;8.70;99.90;;;;;;5012035;28;20021;-45
2024/02/01 08:41:35;;;;;;;6.25;5.25;;;8.70;99.90;;;;;;5011626;28;20026;-45
2024/02/01 08:44:02;;;;;;;7.03;4.60;;;8.70;99.90;;;;;;5011319;28;20033;-44
2024/02/01 08:46:28;;;;;;;7.35;5.78;;;8.80;99.90;;;;;;5011497;28;20026;-45
2024/02/01 08:48:53;;;;;;;6.30;5.20;;;8.80;99.90;;;;;;5011600;28;20158;-41
2024/02/01 08:51:19;;;;;;;6.35;5.00;;;8.80;99.90;;;;;;5012044;28;20453;-44
2024/02/01 08:53:45;;;;;;;7.88;5.60;;;8.80;99.90;;;;;;5011137;28;20100;-46
2024/02/01 08:56:11;;;;;;;6.55;4.50;;;8.90;99.90;;;;;;5011369;28;20040;-44
2024/02/01 08:58:38;;;;;;;5.53;4.65;;;9.00;99.90;;;;;;5015860;28;20394;-46
2024/02/01 09:01:04;;;;;;;5.22;4.38;;;9.00;99.90;;;;;;5016118;28;20030;-47
2024/02/01 09:03:32;;;;;;;5.32;4.63;;;9.10;99.90;;;;;;5020389;28;20033;-45
2024/02/01 09:06:08;;;;;;;4.43;4.03;;;9.20;99.90;;;;;;5029300;28;20033;-46
2024/02/01 09:08:38;;;;;;;6.55;5.28;;;9.30;99.90;;;;;;5035473;28;20026;-47
2024/02/01 09:11:17;;;;;;;6.95;4.28;;;9.50;99.90;;;;;;5035387;28;20021;-50
2024/02/01 09:13:45;;;;;;;4.88;4.20;;;9.40;99.90;;;;;;5029265;28;20534;-48
2024/02/01 09:16:21;;;;;;;9.68;4.70;;;9.50;99.90;;;;;;5018197;28;20038;-48
2024/02/01 09:18:47;;;;;;;4.55;4.15;;;9.60;99.90;;;;;;5019623;28;20034;-44
2024/02/01 09:21:13;;;;;;;4.50;3.58;;;9.60;99.90;;;;;;5015288;28;20399;-45
2024/02/01 09:23:39;;;;;;;4.18;3.53;;;9.70;99.90;;;;;;5014808;28;20038;-43
2024/02/01 09:26:08;;;;;;;4.25;3.85;;;9.70;99.90;;;;;;5015298;28;20037;-43
2024/02/01 09:28:34;;;;;;;5.40;3.35;;;9.70;99.90;;;;;;5015214;28;20014;-45
2024/02/01 09:30:59;;;;;;;8.15;3.47;;;9.70;99.90;;;;;;5014485;28;20021;-51
2024/02/01 09:33:28;;;;;;;3.85;3.55;;;9.70;99.90;;;;;;5015215;28;20514;-46
2024/02/01 09:35:56;;;;;;;3.35;3.05;;;9.70;99.90;;;;;;5015771;28;20030;-48
2024/02/01 09:38:22;;;;;;;3.30;3.10;;;9.70;99.90;;;;;;5015575;28;20269;-43
2024/02/01 09:40:48;;;;;;;5.72;3.45;;;9.60;99.90;;;;;;5015775;28;20466;-46
2024/02/01 09:43:22;;;;;;;4.18;3.53;;;9.70;99.90;;;;;;5015222;28;20064;-43
2024/02/01 09:45:51;;;;;;;8.10;3.97;;;9.80;99.90;;;;;;5015506;28;20034;-44
2024/02/01 09:48:18;;;;;;;3.70;3.40;;;10.00;99.90;;;;;;5015455;28;20469;-41
2024/02/01 09:50:57;;;;;;;3.38;2.70;;;10.10;99.90;;;;;;5014181;28;20520;-48
2024/02/01 09:53:24;;;;;;;6.50;2.92;;;10.40;99.90;;;;;;5014800;28;20522;-47
2024/02/01 09:55:54;;;;;;;3.47;2.92;;;10.90;99.90;;;;;;5014687;28;20502;-43
2024/02/01 09:58:21;;;;;;;3.38;2.75;;;11.10;99.90;;;;;;5014582;28;20029;-44
2024/02/01 10:00:47;;;;;;;2.13;2.00;;;11.10;99.90;;;;;;5014842;28;20041;-45
2024/02/01 10:03:14;;;;;;;2.97;2.20;;;11.10;99.90;;;;;;5014580;28;20033;-50
2024/02/01 10:05:43;;;;;;;4.00;2.60;;;11.00;99.90;;;;;;5014596;28;20060;-45
2024/02/01 10:08:13;;;;;;;2.90;2.70;;;10.90;99.90;;;;;;5013875;28;20057;-47
2024/02/01 10:10:41;;;;;;;3.67;2.63;;;10.90;99.90;;;;;;5014569;28;20083;-43
2024/02/01 10:13:13;;;;;;;3.22;2.95;;;10.80;99.90;;;;;;5014167;28;20022;-47
2024/02/01 10:15:43;;;;;;;3.17;2.20;;;10.70;99.90;;;;;;5014428;28;20057;-46
2024/02/01 10:18:16;;;;;;;2.50;2.35;;;10.70;99.90;;;;;;5014231;28;20053;-48
2024/02/01 10:20:53;;;;;;;2.70;2.50;;;10.60;99.90;;;;;;5015070;28;20100;-49
2024/02/01 10:23:20;;;;;;;5.97;3.03;;;10.60;99.90;;;;;;5014166;28;20025;-50
2024/02/01 10:25:50;;;;;;;2.42;2.20;;;10.60;99.90;;;;;;5013953;28;20054;-46
2024/02/01 10:28:21;;;;;;;3.10;2.53;;;10.60;99.90;;;;;;5014080;28;20451;-49
2024/02/01 10:30:49;;;;;;;3.05;2.75;;;10.70;99.90;;;;;;5014044;28;20072;-44
2024/02/01 10:33:17;;;;;;;3.13;2.72;;;10.50;99.90;;;;;;5013783;28;20368;-43
2024/02/01 10:35:48;;;;;;;4.20;2.50;;;10.70;99.90;;;;;;5013992;28;20033;-42
2024/02/01 10:38:20;;;;;;;4.93;3.40;;;10.90;99.90;;;;;;5014004;28;20105;-42
2024/02/01 10:40:52;;;;;;;2.80;2.60;;;;;;;;;;5014021;28;20498;-42
2024/02/01 10:43:21;;;;;;;8.57;2.45;;;11.70;99.90;;;;;;5014099;28;20045;-48
2024/02/01 10:46:05;;;;;;;4.25;2.33;;;12.10;99.90;;;;;;5013862;28;20026;-47
2024/02/01 10:48:51;;;;;;;2.60;2.05;;;12.20;99.90;;;;;;5013619;28;20097;-45
2024/02/01 10:51:16;;;;;;;;;;;12.30;99.90;;;;;;5014077;28;20030;-43
2024/02/01 10:53:46;;;;;;;2.00;1.90;;;12.40;99.90;;;;;;5013508;28;19996;-45
2024/02/01 10:56:17;;;;;;;2.42;2.22;;;12.60;99.90;;;;;;5013508;28;20025;-45
2024/02/01 10:58:45;;;;;;;3.97;2.13;;;12.90;99.90;;;;;;5013432;28;20030;-43
2024/02/01 11:01:18;;;;;;;4.85;2.10;;;13.20;99.90;;;;;;5013431;28;20554;-47
2024/02/01 11:03:48;;;;;;;4.38;2.55;;;13.40;99.90;;;;;;5013232;28;20380;-46
2024/02/01 11:06:17;;;;;;;2.80;2.60;;;13.50;99.90;;;;;;5014269;28;20030;-47
2024/02/01 11:08:44;;;;;;;5.55;2.50;;;13.30;99.90;;;;;;5013517;28;20021;-45
2024/02/01 11:11:16;;;;;;;2.38;2.17;;;13.30;99.90;;;;;;5013666;28;20483;-46
2024/02/01 11:13:45;;;;;;;4.78;2.80;;;13.30;99.90;;;;;;5014092;28;20403;-46
2024/02/01 11:16:11;;;;;;;3.85;2.50;;;13.20;99.90;;;;;;5013210;28;20026;-44
2024/02/01 11:18:37;;;;;;;4.65;3.55;;;13.10;99.90;;;;;;5012951;28;20029;-46
2024/02/01 11:21:06;;;;;;;2.63;2.42;;;13.00;99.90;;;;;;5012674;28;20399;-45
2024/02/01 11:23:38;;;;;;;3.10;2.67;;;13.00;99.90;;;;;;5012689;28;20030;-45
2024/02/01 11:26:15;;;;;;;7.10;2.88;;;13.10;99.90;;;;;;5012918;28;20565;-43
2024/02/01 11:28:40;;;;;;;5.20;3.38;;;13.00;99.90;;;;;;5012757;28;20018;-45
2024/02/01 11:31:06;;;;;;;7.40;3.20;;;12.90;99.90;;;;;;5012850;28;20037;-49
2024/02/01 11:33:33;;;;;;;4.85;3.53;;;12.80;99.90;;;;;;5012599;28;20030;-46
2024/02/01 11:35:59;;;;;;;5.38;3.15;;;12.70;99.90;;;;;;5013225;28;20026;-44
2024/02/01 11:38:28;;;;;;;6.45;2.90;;;12.60;99.90;;;;;;5012613;28;20442;-45
2024/02/01 11:40:53;;;;;;;5.07;3.28;;;12.50;99.90;;;;;;5013209;28;20032;-40
2024/02/01 11:43:19;;;;;;;4.88;3.17;;;12.40;99.90;;;;;;5012494;28;20097;-44
2024/02/01 11:45:53;;;;;;;5.88;3.25;;;12.30;99.90;;;;;;5012551;28;20494;-45
2024/02/01 11:48:22;;;;;;;5.55;4.10;;;12.40;99.90;;;;;;5012443;28;20040;-45
2024/02/01 11:50:58;;;;;;;5.10;3.30;;;12.20;99.90;;;;;;5012723;28;20018;-44
2024/02/01 11:53:24;;;;;;;5.82;3.72;;;12.20;99.90;;;;;;5012346;28;20057;-42
2024/02/01 11:55:54;;;;;;;7.30;3.60;;;12.20;99.90;;;;;;5012806;28;20034;-44
2024/02/01 11:58:22;;;;;;;5.53;3.53;;;12.10;99.90;;;;;;5012465;28;20380;-43
2024/02/01 12:00:50;;;;;;;5.43;3.60;;;12.00;99.90;;;;;;5012395;28;20045;-43
2024/02/01 12:03:16;;;;;;;5.53;4.00;;;11.80;99.90;;;;;;5012318;28;20033;-44
2024/02/01 12:05:44;;;;;;;4.18;3.58;;;11.70;99.90;;;;;;5012110;28;20026;-45
2024/02/01 12:08:10;;;;;;;6.78;4.38;;;11.70;99.90;;;;;;5013239;28;20026;-45
2024/02/01 12:10:35;;;;;;;5.53;3.70;;;11.70;99.90;;;;;;5012644;28;20045;-45
2024/02/01 12:13:02;;;;;;;4.68;3.40;;;11.80;99.90;;;;;;5012435;28;20138;-44
2024/02/01 12:15:28;;;;;;;4.70;3.25;;;11.70;99.90;;;;;;5013217;28;20033;-46
2024/02/01 12:17:58;;;;;;;3.90;3.05;;;11.70;99.90;;;;;;5011994;28;20052;-46
2024/02/01 12:20:28;;;;;;;3.58;2.80;;;11.70;99.90;;;;;;5018580;28;20025;-50
2024/02/01 12:22:57;;;;;;;5.50;2.70;;;11.60;99.90;;;;;;5030437;28;20029;-45
2024/02/01 12:25:23;;;;;;;5.88;2.33;;;11.50;99.90;;;;;;5031372;28;20486;-44
2024/02/01 12:27:50;;;;;;;6.78;2.58;;;11.40;99.90;;;;;;5029294;28;20395;-43
2024/02/01 12:30:16;;;;;;;4.38;3.47;;;11.30;99.90;;;;;;5020317;28;20052;-46
2024/02/01 12:32:43;;;;;;;3.58;2.90;;;11.30;99.90;;;;;;5016639;28;20104;-46
2024/02/01 12:35:19;;;;;;;5.35;3.10;;;11.20;99.90;;;;;;5042422;28;20031;-44
2024/02/01 12:37:45;;;;;;;5.25;2.97;;;11.20;99.90;;;;;;5020092;28;20028;-47
2024/02/01 12:40:12;;;;;;;6.07;2.75;;;11.20;99.90;;;;;;5030210;28;20029;-44
2024/02/01 12:42:39;;;;;;;7.57;2.97;;;11.10;99.90;;;;;;5021924;28;20033;-45
2024/02/01 12:45:07;;;;;;;6.43;2.95;;;11.20;99.90;;;;;;5031107;28;20560;-45
2024/02/01 12:47:37;;;;;;;3.53;2.22;;;11.10;99.90;;;;;;5030647;28;20525;-44
2024/02/01 12:50:06;;;;;;;7.20;2.45;;;11.10;99.90;;;;;;5031701;28;20034;-48
2024/02/01 12:52:33;;;;;;;2.92;2.15;;;11.10;99.90;;;;;;5031056;28;20421;-44
2024/02/01 12:55:00;;;;;;;4.20;2.63;;;11.20;99.90;;;;;;5030667;28;20048;-44
2024/02/01 12:57:29;;;;;;;4.50;2.42;;;11.20;99.90;;;;;;5031489;28;20584;-46
2024/02/01 12:59:58;;;;;;;4.63;2.42;;;11.10;99.90;;;;;;5027385;28;20029;-47
2024/02/01 13:02:25;;;;;;;6.22;2.53;;;11.10;99.90;;;;;;5023541;28;20070;-48
2024/02/01 13:04:51;;;;;;;7.80;3.08;;;11.10;99.90;;;;;;5013195;28;20100;-43
2024/02/01 13:07:21;;;;;;;6.38;2.80;;;11.30;99.90;;;;;;5011417;28;20034;-46
2024/02/01 13:09:47;;;;;;;60.15;32.65;;;11.40;99.90;;;;;;5010229;28;20441;-43
2024/02/01 13:12:21;;;;;;;45.70;24.92;;;11.40;99.90;;;;;;5010843;28;20101;-44
2024/02/01 13:15:00;;;;;;;4.88;3.20;;;11.50;99.90;;;;;;5010926;28;20029;-40
2024/02/01 13:17:36;;;;;;;5.35;2.00;;;11.50;99.90;;;;;;5016335;28;20052;-44
2024/02/01 13:20:18;;;;;;;3.22;2.10;;;11.40;99.90;;;;;;5029208;28;20102;-44
2024/02/01 13:22:45;;;;;;;7.60;2.38;;;11.30;99.90;;;;;;5030665;28;20055;-43
2024/02/01 13:25:18;;;;;;;4.70;2.10;;;11.10;99.90;;;;;;5030619;28;20580;-48
2024/02/01 13:27:43;;;;;;;7.03;2.33;;;11.10;99.90;;;;;;5030522;28;20037;-45
2024/02/01 13:30:09;;;;;;;5.90;2.60;;;11.10;99.90;;;;;;5030750;28;20044;-43
2024/02/01 13:32:35;;;;;;;6.07;2.53;;;11.00;99.90;;;;;;5030569;28;20025;-41
2024/02/01 13:35:01;;;;;;;7.50;2.00;;;11.10;99.90;;;;;;5022923;28;20076;-45
2024/02/01 13:37:27;;;;;;;9.32;3.28;;;11.00;99.90;;;;;;5008832;28;20036;-48
2024/02/01 13:39:52;;;;;;;6.40;1.85;;;10.90;99.90;;;;;;5008293;28;20061;-46
2024/02/01 13:42:18;;;;;;;5.72;2.22;;;10.90;99.90;;;;;;5009039;28;20062;-44
2024/02/01 13:44:43;;;;;;;3.90;1.98;;;10.90;99.90;;;;;;5014409;28;20034;-44